createdAt,value
2023-01-30T00:00:14.674Z,96.05
2023-01-30T00:01:14.520Z,96.05
2023-01-30T00:02:14.600Z,96.47
2023-01-30T00:03:14.554Z,96.26
2023-01-30T00:04:17.159Z,96.37
2023-01-30T00:05:14.655Z,96.58
2023-01-30T00:06:14.612Z,96.58
2023-01-30T00:07:14.623Z,96.58
2023-01-30T00:08:14.650Z,96.16
2023-01-30T00:09:14.690Z,96.16
2023-01-30T00:10:14.863Z,96.16
2023-01-30T00:11:14.681Z,95.95
2023-01-30T00:12:14.700Z,96.37
2023-01-30T00:13:14.767Z,96.16
2023-01-30T00:14:14.727Z,96.10
2023-01-30T00:15:14.769Z,96.51
2023-01-30T00:16:14.801Z,96.41
2023-01-30T00:17:14.774Z,96.73
2023-01-30T00:18:14.794Z,96.94
2023-01-30T00:19:14.806Z,96.62
2023-01-30T00:20:15.873Z,97.05
2023-01-30T00:21:14.848Z,97.25
2023-01-30T00:22:14.865Z,97.05
2023-01-30T00:23:14.878Z,96.73
2023-01-30T00:24:15.080Z,96.51
2023-01-30T00:25:15.041Z,96.47
2023-01-30T00:26:14.977Z,96.51
2023-01-30T00:27:14.943Z,96.41
2023-01-30T00:28:14.973Z,96.51
2023-01-30T00:29:14.992Z,96.41
2023-01-30T00:30:15.060Z,96.41
2023-01-30T00:31:15.125Z,96.41
2023-01-30T00:32:15.026Z,96.58
2023-01-30T00:33:15.050Z,96.79
2023-01-30T00:34:15.075Z,96.69
2023-01-30T00:35:15.105Z,96.58
2023-01-30T00:36:15.099Z,96.37
2023-01-30T00:37:15.106Z,96.16
2023-01-30T00:38:15.130Z,96.16
2023-01-30T00:39:15.135Z,96.26
2023-01-30T00:40:15.220Z,95.95
2023-01-30T00:41:15.174Z,96.37
2023-01-30T00:42:15.193Z,96.10
2023-01-30T00:43:15.241Z,96.41
2023-01-30T00:44:15.237Z,96.16
2023-01-30T00:45:16.045Z,96.05
2023-01-30T00:46:15.375Z,96.47
2023-01-30T00:47:15.281Z,95.95
2023-01-30T00:48:15.300Z,95.74
2023-01-30T00:49:15.313Z,96.05
2023-01-30T00:50:15.337Z,96.05
2023-01-30T00:51:15.369Z,96.05
2023-01-30T00:52:15.364Z,96.37
2023-01-30T00:53:15.378Z,96.16
2023-01-30T00:54:15.396Z,96.16
2023-01-30T00:55:15.920Z,95.84
2023-01-30T00:56:15.456Z,95.95
2023-01-30T00:57:15.435Z,95.99
2023-01-30T00:58:15.459Z,95.89
2023-01-30T00:59:15.473Z,96.31
2023-01-30T01:00:15.488Z,96.31
2023-01-30T01:01:15.553Z,96.26
2023-01-30T01:02:15.607Z,96.37
2023-01-30T01:03:15.608Z,95.84
2023-01-30T01:04:15.573Z,95.68
2023-01-30T01:05:15.793Z,96.16
2023-01-30T01:06:15.614Z,95.89
2023-01-30T01:07:15.599Z,95.99
2023-01-30T01:08:15.639Z,95.89
2023-01-30T01:09:15.626Z,95.89
2023-01-30T01:10:15.653Z,96.10
2023-01-30T01:11:15.654Z,96.20
2023-01-30T01:12:15.676Z,96.10
2023-01-30T01:13:15.716Z,96.20
2023-01-30T01:14:15.717Z,95.78
2023-01-30T01:15:15.865Z,95.78
2023-01-30T01:16:15.761Z,95.78
2023-01-30T01:17:15.749Z,95.78
2023-01-30T01:18:15.819Z,96.20
2023-01-30T01:19:15.825Z,96.20
2023-01-30T01:20:15.828Z,95.99
2023-01-30T01:21:15.815Z,95.99
2023-01-30T01:22:15.832Z,95.99
2023-01-30T01:23:15.865Z,96.31
2023-01-30T01:24:15.865Z,95.99
2023-01-30T01:25:16.215Z,95.99
2023-01-30T01:26:15.917Z,95.78
2023-01-30T01:27:15.922Z,95.84
2023-01-30T01:28:15.951Z,95.10
2023-01-30T01:29:15.982Z,95.32
2023-01-30T01:30:15.958Z,95.32
2023-01-30T01:31:16.060Z,95.32
2023-01-30T01:32:15.995Z,95.74
2023-01-30T01:33:16.029Z,96.05
2023-01-30T01:34:16.032Z,95.32
2023-01-30T01:35:16.481Z,94.90
2023-01-30T01:36:29.253Z,95.42
2023-01-30T01:37:16.082Z,95.64
2023-01-30T01:38:16.109Z,95.21
2023-01-30T01:39:16.100Z,95.42
2023-01-30T01:40:16.116Z,95.64
2023-01-30T01:41:16.133Z,95.64
2023-01-30T01:42:16.156Z,95.04
2023-01-30T01:43:16.187Z,95.04
2023-01-30T01:44:16.190Z,95.47
2023-01-30T01:45:16.547Z,96.10
2023-01-30T01:46:16.268Z,95.57
2023-01-30T01:47:16.238Z,95.04
2023-01-30T01:48:16.278Z,95.36
2023-01-30T01:49:16.265Z,95.89
2023-01-30T01:50:16.285Z,95.78
2023-01-30T01:51:16.304Z,95.57
2023-01-30T01:52:16.327Z,95.47
2023-01-30T01:53:16.358Z,95.47
2023-01-30T01:54:16.361Z,95.68
2023-01-30T01:55:16.964Z,96.10
2023-01-30T01:56:16.387Z,95.47
2023-01-30T01:57:16.409Z,95.26
2023-01-30T01:58:16.450Z,95.36
2023-01-30T01:59:16.442Z,95.47
2023-01-30T02:00:16.456Z,95.68
2023-01-30T02:01:16.551Z,95.78
2023-01-30T02:02:16.517Z,95.99
2023-01-30T02:03:16.521Z,95.68
2023-01-30T02:04:16.528Z,95.47
2023-01-30T02:05:16.909Z,95.36
2023-01-30T02:06:16.571Z,94.94
2023-01-30T02:07:16.574Z,95.36
2023-01-30T02:08:16.620Z,95.36
2023-01-30T02:09:16.606Z,95.47
2023-01-30T02:10:16.628Z,95.89
2023-01-30T02:11:16.644Z,95.78
2023-01-30T02:12:16.664Z,95.26
2023-01-30T02:13:16.702Z,95.04
2023-01-30T02:14:16.698Z,95.26
2023-01-30T02:15:17.056Z,95.89
2023-01-30T02:16:16.741Z,96.41
2023-01-30T02:17:16.752Z,96.10
2023-01-30T02:18:16.785Z,95.68
2023-01-30T02:19:16.766Z,95.15
2023-01-30T02:20:16.795Z,95.68
2023-01-30T02:21:16.802Z,95.99
2023-01-30T02:22:16.824Z,95.78
2023-01-30T02:23:16.859Z,95.47
2023-01-30T02:24:16.856Z,95.57
2023-01-30T02:25:17.242Z,95.36
2023-01-30T02:26:16.935Z,95.47
2023-01-30T02:27:16.899Z,95.57
2023-01-30T02:28:16.941Z,95.26
2023-01-30T02:29:16.926Z,94.94
2023-01-30T02:30:16.945Z,94.94
2023-01-30T02:31:17.063Z,95.04
2023-01-30T02:32:16.983Z,95.57
2023-01-30T02:33:17.035Z,95.78
2023-01-30T02:34:17.023Z,95.78
2023-01-30T02:35:17.313Z,95.36
2023-01-30T02:36:17.053Z,95.68
2023-01-30T02:37:23.067Z,95.57
2023-01-30T02:38:17.118Z,95.04
2023-01-30T02:39:17.098Z,95.15
2023-01-30T02:40:17.112Z,95.26
2023-01-30T02:41:17.126Z,94.94
2023-01-30T02:42:17.136Z,95.36
2023-01-30T02:43:17.171Z,95.57
2023-01-30T02:44:17.165Z,95.78
2023-01-30T02:45:17.393Z,95.99
2023-01-30T02:46:17.280Z,96.10
2023-01-30T02:47:17.201Z,95.57
2023-01-30T02:48:17.246Z,95.57
2023-01-30T02:49:17.234Z,95.57
2023-01-30T02:50:17.260Z,95.89
2023-01-30T02:51:17.260Z,95.99
2023-01-30T02:52:18.450Z,95.89
2023-01-30T02:53:17.330Z,95.47
2023-01-30T02:54:17.315Z,95.68
2023-01-30T02:55:17.742Z,95.78
2023-01-30T02:56:17.346Z,95.57
2023-01-30T02:57:17.360Z,95.57
2023-01-30T02:58:17.390Z,95.68
2023-01-30T02:59:17.401Z,95.57
2023-01-30T03:00:17.405Z,95.68
2023-01-30T03:01:17.478Z,94.94
2023-01-30T03:02:17.507Z,95.68
2023-01-30T03:03:17.478Z,95.68
2023-01-30T03:04:17.475Z,95.21
2023-01-30T03:05:17.820Z,95.00
2023-01-30T03:06:17.505Z,94.90
2023-01-30T03:07:17.530Z,94.73
2023-01-30T03:08:17.572Z,94.94
2023-01-30T03:09:17.567Z,95.36
2023-01-30T03:10:17.568Z,95.57
2023-01-30T03:11:17.582Z,94.84
2023-01-30T03:12:17.597Z,95.15
2023-01-30T03:13:17.656Z,95.04
2023-01-30T03:14:17.634Z,95.15
2023-01-30T03:15:18.009Z,95.57
2023-01-30T03:16:17.706Z,95.57
2023-01-30T03:17:17.684Z,95.15
2023-01-30T03:18:17.698Z,94.94
2023-01-30T03:19:17.706Z,95.36
2023-01-30T03:20:17.719Z,95.36
2023-01-30T03:21:17.743Z,95.26
2023-01-30T03:22:17.778Z,95.04
2023-01-30T03:23:17.781Z,95.26
2023-01-30T03:24:17.784Z,95.15
2023-01-30T03:25:18.286Z,95.36
2023-01-30T03:26:17.857Z,95.15
2023-01-30T03:27:17.843Z,95.15
2023-01-30T03:28:17.845Z,95.42
2023-01-30T03:29:17.862Z,95.32
2023-01-30T03:30:17.883Z,95.21
2023-01-30T03:31:18.053Z,94.90
2023-01-30T03:32:17.910Z,94.58
2023-01-30T03:33:17.934Z,95.10
2023-01-30T03:34:17.941Z,95.32
2023-01-30T03:35:18.434Z,94.69
2023-01-30T03:36:17.988Z,94.37
2023-01-30T03:37:17.992Z,94.90
2023-01-30T03:38:18.008Z,95.00
2023-01-30T03:39:18.031Z,95.21
2023-01-30T03:40:18.048Z,95.42
2023-01-30T03:41:18.055Z,95.21
2023-01-30T03:42:18.067Z,95.04
2023-01-30T03:43:18.105Z,94.94
2023-01-30T03:44:18.098Z,95.32
2023-01-30T03:45:18.563Z,95.32
2023-01-30T03:46:18.170Z,95.10
2023-01-30T03:47:18.147Z,94.58
2023-01-30T03:48:18.175Z,94.58
2023-01-30T03:49:18.196Z,94.69
2023-01-30T03:50:18.178Z,95.00
2023-01-30T03:51:18.199Z,95.00
2023-01-30T03:52:18.217Z,95.21
2023-01-30T03:53:18.252Z,94.90
2023-01-30T03:54:18.235Z,94.79
2023-01-30T03:55:18.569Z,95.10
2023-01-30T03:56:18.296Z,95.10
2023-01-30T03:57:18.295Z,95.32
2023-01-30T03:58:18.317Z,95.00
2023-01-30T03:59:18.323Z,94.79
2023-01-30T04:00:18.330Z,94.84
2023-01-30T04:01:18.371Z,94.90
2023-01-30T04:02:18.434Z,94.79
2023-01-30T04:03:18.397Z,94.58
2023-01-30T04:04:18.393Z,94.69
2023-01-30T04:05:18.841Z,94.90
2023-01-30T04:06:18.427Z,94.69
2023-01-30T04:07:18.436Z,94.52
2023-01-30T04:08:18.483Z,94.52
2023-01-30T04:09:18.470Z,94.73
2023-01-30T04:10:18.508Z,95.26
2023-01-30T04:11:18.509Z,95.26
2023-01-30T04:12:18.529Z,95.15
2023-01-30T04:13:18.563Z,95.47
2023-01-30T04:14:18.563Z,95.68
2023-01-30T04:15:18.969Z,95.26
2023-01-30T04:16:18.633Z,95.42
2023-01-30T04:17:18.609Z,94.94
2023-01-30T04:18:18.646Z,95.00
2023-01-30T04:19:18.651Z,94.90
2023-01-30T04:20:18.662Z,94.94
2023-01-30T04:21:18.676Z,94.52
2023-01-30T04:22:18.699Z,94.52
2023-01-30T04:23:18.740Z,94.42
2023-01-30T04:24:18.740Z,94.94
2023-01-30T04:25:19.274Z,95.57
2023-01-30T04:26:18.784Z,95.26
2023-01-30T04:27:18.786Z,95.36
2023-01-30T04:28:18.823Z,95.68
2023-01-30T04:29:18.823Z,95.36
2023-01-30T04:30:18.895Z,95.26
2023-01-30T04:31:18.938Z,95.51
2023-01-30T04:32:18.863Z,95.40
2023-01-30T04:33:18.911Z,95.40
2023-01-30T04:34:18.912Z,95.30
2023-01-30T04:35:19.215Z,95.40
2023-01-30T04:36:18.930Z,96.03
2023-01-30T04:37:18.923Z,96.03
2023-01-30T04:38:18.958Z,95.62
2023-01-30T04:39:20.507Z,95.78
2023-01-30T04:40:18.976Z,95.89
2023-01-30T04:41:18.987Z,95.89
2023-01-30T04:42:19.004Z,95.68
2023-01-30T04:43:19.034Z,95.78
2023-01-30T04:44:19.038Z,95.47
2023-01-30T04:45:19.547Z,95.36
2023-01-30T04:46:19.069Z,95.15
2023-01-30T04:47:19.098Z,95.47
2023-01-30T04:48:19.116Z,95.36
2023-01-30T04:49:19.110Z,94.94
2023-01-30T04:50:19.135Z,95.15
2023-01-30T04:51:19.141Z,95.26
2023-01-30T04:52:19.163Z,95.47
2023-01-30T04:53:19.182Z,95.15
2023-01-30T04:54:19.183Z,95.04
2023-01-30T04:55:19.653Z,95.20
2023-01-30T04:56:19.215Z,95.20
2023-01-30T04:57:19.218Z,95.09
2023-01-30T04:58:19.264Z,95.09
2023-01-30T04:59:19.256Z,95.09
2023-01-30T05:00:19.272Z,95.51
2023-01-30T05:01:19.278Z,95.62
2023-01-30T05:02:19.429Z,95.40
2023-01-30T05:03:19.329Z,95.40
2023-01-30T05:04:19.327Z,95.30
2023-01-30T05:05:19.717Z,95.40
2023-01-30T05:06:19.360Z,95.51
2023-01-30T05:07:19.363Z,95.72
2023-01-30T05:08:19.411Z,95.72
2023-01-30T05:09:19.406Z,95.30
2023-01-30T05:10:19.423Z,95.62
2023-01-30T05:11:19.442Z,95.72
2023-01-30T05:12:19.460Z,95.51
2023-01-30T05:13:19.482Z,95.51
2023-01-30T05:14:19.478Z,95.78
2023-01-30T05:15:19.933Z,95.36
2023-01-30T05:16:19.518Z,95.20
2023-01-30T05:17:19.585Z,95.09
2023-01-30T05:18:19.571Z,95.72
2023-01-30T05:19:19.550Z,95.68
2023-01-30T05:20:19.576Z,95.78
2023-01-30T05:21:19.603Z,95.40
2023-01-30T05:22:19.589Z,95.78
2023-01-30T05:23:19.622Z,95.36
2023-01-30T05:24:19.621Z,95.57
2023-01-30T05:25:19.981Z,95.99
2023-01-30T05:26:19.669Z,96.10
2023-01-30T05:27:19.649Z,95.78
2023-01-30T05:28:19.687Z,95.36
2023-01-30T05:29:19.678Z,95.26
2023-01-30T05:30:19.735Z,95.04
2023-01-30T05:31:19.743Z,95.26
2023-01-30T05:32:19.720Z,95.26
2023-01-30T05:33:19.753Z,95.64
2023-01-30T05:34:19.750Z,95.42
2023-01-30T05:35:20.249Z,95.74
2023-01-30T05:36:19.785Z,95.10
2023-01-30T05:37:19.794Z,94.69
2023-01-30T05:38:19.840Z,94.90
2023-01-30T05:39:19.827Z,94.79
2023-01-30T05:40:19.845Z,94.79
2023-01-30T05:41:19.876Z,95.00
2023-01-30T05:42:19.880Z,94.90
2023-01-30T05:43:19.913Z,94.79
2023-01-30T05:44:19.933Z,94.58
2023-01-30T05:45:20.470Z,94.69
2023-01-30T05:46:20.021Z,94.27
2023-01-30T05:47:19.956Z,94.58
2023-01-30T05:48:19.990Z,94.58
2023-01-30T05:49:19.986Z,94.69
2023-01-30T05:50:20.006Z,94.37
2023-01-30T05:51:20.051Z,94.37
2023-01-30T05:52:20.048Z,94.79
2023-01-30T05:53:20.080Z,95.10
2023-01-30T05:54:20.073Z,95.10
2023-01-30T05:55:20.523Z,94.79
2023-01-30T05:56:20.112Z,94.48
2023-01-30T05:57:20.109Z,94.90
2023-01-30T05:58:20.150Z,94.69
2023-01-30T05:59:20.161Z,94.69
2023-01-30T06:00:20.163Z,94.58
2023-01-30T06:01:20.175Z,94.69
2023-01-30T06:02:20.285Z,94.79
2023-01-30T06:03:20.236Z,95.21
2023-01-30T06:04:20.229Z,95.21
2023-01-30T06:05:20.438Z,94.69
2023-01-30T06:06:20.275Z,94.48
2023-01-30T06:07:20.271Z,94.65
2023-01-30T06:08:20.311Z,94.65
2023-01-30T06:09:20.315Z,94.85
2023-01-30T06:10:20.329Z,94.85
2023-01-30T06:11:20.342Z,94.43
2023-01-30T06:12:20.371Z,93.91
2023-01-30T06:13:20.395Z,94.54
2023-01-30T06:14:20.397Z,94.43
2023-01-30T06:15:20.668Z,94.23
2023-01-30T06:16:20.468Z,94.23
2023-01-30T06:17:20.440Z,94.33
2023-01-30T06:18:20.487Z,94.96
2023-01-30T06:19:20.470Z,94.60
2023-01-30T06:20:20.493Z,94.18
2023-01-30T06:21:20.506Z,94.29
2023-01-30T06:22:20.527Z,94.08
2023-01-30T06:23:20.577Z,93.87
2023-01-30T06:24:20.564Z,94.49
2023-01-30T06:25:20.859Z,94.18
2023-01-30T06:26:20.612Z,93.66
2023-01-30T06:27:20.593Z,93.55
2023-01-30T06:28:20.632Z,93.34
2023-01-30T06:29:20.627Z,93.66
2023-01-30T06:30:20.693Z,93.24
2023-01-30T06:31:20.719Z,93.02
2023-01-30T06:32:20.681Z,93.44
2023-01-30T06:33:20.715Z,93.55
2023-01-30T06:34:20.716Z,93.44
2023-01-30T06:35:21.022Z,93.24
2023-01-30T06:36:20.777Z,93.34
2023-01-30T06:37:20.769Z,93.55
2023-01-30T06:38:20.810Z,93.55
2023-01-30T06:39:20.795Z,93.34
2023-01-30T06:40:20.821Z,93.55
2023-01-30T06:41:20.831Z,93.76
2023-01-30T06:42:20.844Z,93.70
2023-01-30T06:43:20.876Z,93.66
2023-01-30T06:44:20.878Z,93.55
2023-01-30T06:45:21.136Z,93.87
2023-01-30T06:46:20.979Z,93.66
2023-01-30T06:47:20.923Z,93.34
2023-01-30T06:48:20.968Z,93.24
2023-01-30T06:49:20.945Z,93.55
2023-01-30T06:50:20.967Z,93.55
2023-01-30T06:51:20.985Z,93.55
2023-01-30T06:52:21.000Z,92.92
2023-01-30T06:53:21.046Z,93.55
2023-01-30T06:54:21.065Z,93.66
2023-01-30T06:55:21.372Z,93.34
2023-01-30T06:56:21.067Z,93.34
2023-01-30T06:57:21.080Z,93.44
2023-01-30T06:58:21.129Z,93.24
2023-01-30T06:59:21.115Z,93.34
2023-01-30T07:00:21.184Z,93.55
2023-01-30T07:01:21.153Z,93.76
2023-01-30T07:02:21.168Z,93.66
2023-01-30T07:03:21.200Z,93.44
2023-01-30T07:04:21.274Z,93.34
2023-01-30T07:05:21.223Z,93.55
2023-01-30T07:06:21.243Z,93.55
2023-01-30T07:07:21.244Z,93.44
2023-01-30T07:08:23.255Z,93.34
2023-01-30T07:09:21.283Z,93.66
2023-01-30T07:10:21.300Z,93.66
2023-01-30T07:11:21.305Z,93.76
2023-01-30T07:12:21.328Z,93.66
2023-01-30T07:13:21.348Z,93.66
2023-01-30T07:14:21.348Z,94.04
2023-01-30T07:15:21.497Z,93.44
2023-01-30T07:16:21.423Z,93.40
2023-01-30T07:17:21.389Z,93.19
2023-01-30T07:18:21.413Z,93.40
2023-01-30T07:19:21.416Z,93.40
2023-01-30T07:20:21.439Z,92.99
2023-01-30T07:21:21.449Z,92.88
2023-01-30T07:22:21.467Z,93.09
2023-01-30T07:23:21.485Z,93.09
2023-01-30T07:24:21.504Z,93.09
2023-01-30T07:25:21.515Z,92.67
2023-01-30T07:26:21.564Z,92.99
2023-01-30T07:27:21.545Z,93.19
2023-01-30T07:28:21.561Z,93.30
2023-01-30T07:29:21.574Z,92.88
2023-01-30T07:30:21.680Z,92.88
2023-01-30T07:31:21.684Z,92.88
2023-01-30T07:32:21.636Z,92.35
2023-01-30T07:33:21.647Z,92.46
2023-01-30T07:34:21.668Z,92.57
2023-01-30T07:35:22.157Z,92.25
2023-01-30T07:36:21.694Z,92.46
2023-01-30T07:37:21.717Z,92.67
2023-01-30T07:38:21.729Z,92.46
2023-01-30T07:39:21.762Z,92.04
2023-01-30T07:40:21.791Z,91.94
2023-01-30T07:41:21.775Z,92.04
2023-01-30T07:42:21.797Z,92.14
2023-01-30T07:43:21.807Z,92.35
2023-01-30T07:44:21.830Z,92.25
2023-01-30T07:45:21.839Z,92.57
2023-01-30T07:46:21.863Z,92.14
2023-01-30T07:47:21.875Z,92.25
2023-01-30T07:48:21.896Z,91.72
2023-01-30T07:49:21.900Z,91.83
2023-01-30T07:50:21.921Z,91.83
2023-01-30T07:51:21.947Z,92.14
2023-01-30T07:52:21.955Z,91.58
2023-01-30T07:53:21.977Z,91.79
2023-01-30T07:54:21.989Z,91.37
2023-01-30T07:55:22.006Z,91.16
2023-01-30T07:56:22.017Z,91.05
2023-01-30T07:57:22.034Z,90.95
2023-01-30T07:58:22.045Z,91.33
2023-01-30T07:59:22.075Z,90.80
2023-01-30T08:00:22.209Z,91.22
2023-01-30T08:01:22.155Z,90.91
2023-01-30T08:02:22.106Z,90.59
2023-01-30T08:03:22.140Z,90.91
2023-01-30T08:04:22.192Z,91.12
2023-01-30T08:05:22.149Z,91.12
2023-01-30T08:06:22.172Z,90.80
2023-01-30T08:07:22.177Z,90.80
2023-01-30T08:08:22.209Z,90.49
2023-01-30T08:09:22.222Z,90.07
2023-01-30T08:10:22.237Z,89.97
2023-01-30T08:11:22.238Z,89.65
2023-01-30T08:12:22.254Z,90.07
2023-01-30T08:13:22.311Z,89.44
2023-01-30T08:14:22.283Z,89.86
2023-01-30T08:15:23.120Z,89.86
2023-01-30T08:16:22.369Z,89.75
2023-01-30T08:17:22.325Z,89.75
2023-01-30T08:18:22.364Z,89.86
2023-01-30T08:19:22.352Z,89.72
2023-01-30T08:20:22.369Z,89.19
2023-01-30T08:21:22.398Z,89.19
2023-01-30T08:22:22.390Z,88.98
2023-01-30T08:23:22.428Z,88.87
2023-01-30T08:24:22.423Z,88.87
2023-01-30T08:25:22.464Z,88.67
2023-01-30T08:26:22.498Z,87.83
2023-01-30T08:27:22.463Z,87.62
2023-01-30T08:28:22.504Z,87.30
2023-01-30T08:29:22.498Z,87.47
2023-01-30T08:30:22.805Z,87.58
2023-01-30T08:31:22.572Z,86.95
2023-01-30T08:32:22.531Z,87.05
2023-01-30T08:33:22.567Z,87.37
2023-01-30T08:34:22.563Z,87.43
2023-01-30T08:35:22.583Z,86.91
2023-01-30T08:36:22.594Z,86.49
2023-01-30T08:37:22.612Z,86.07
2023-01-30T08:38:22.642Z,87.12
2023-01-30T08:39:22.647Z,86.80
2023-01-30T08:40:22.665Z,86.35
2023-01-30T08:41:22.690Z,85.82
2023-01-30T08:42:22.696Z,85.41
2023-01-30T08:43:22.804Z,84.88
2023-01-30T08:44:22.736Z,86.14
2023-01-30T08:45:22.760Z,85.41
2023-01-30T08:46:22.818Z,85.61
2023-01-30T08:47:22.800Z,85.61
2023-01-30T08:48:22.871Z,85.61
2023-01-30T08:49:22.827Z,85.51
2023-01-30T08:50:22.842Z,85.82
2023-01-30T08:51:22.863Z,85.26
2023-01-30T08:52:22.889Z,85.26
2023-01-30T08:53:22.914Z,85.36
2023-01-30T08:54:22.911Z,84.84
2023-01-30T08:55:22.941Z,85.58
2023-01-30T08:56:22.943Z,85.16
2023-01-30T08:57:22.968Z,85.36
2023-01-30T08:58:23.014Z,84.84
2023-01-30T08:59:23.004Z,85.36
2023-01-30T09:00:23.031Z,85.16
2023-01-30T09:01:23.084Z,84.74
2023-01-30T09:02:23.109Z,85.64
2023-01-30T09:03:23.095Z,84.28
2023-01-30T09:04:23.096Z,84.28
2023-01-30T09:05:23.122Z,83.93
2023-01-30T09:06:26.021Z,83.72
2023-01-30T09:07:23.152Z,84.24
2023-01-30T09:08:23.196Z,83.93
2023-01-30T09:09:23.207Z,83.83
2023-01-30T09:10:23.207Z,83.62
2023-01-30T09:11:23.229Z,83.72
2023-01-30T09:12:23.253Z,83.30
2023-01-30T09:13:23.287Z,83.40
2023-01-30T09:14:23.286Z,83.16
2023-01-30T09:15:23.321Z,82.84
2023-01-30T09:16:23.358Z,82.74
2023-01-30T09:17:23.344Z,83.47
2023-01-30T09:18:23.452Z,83.06
2023-01-30T09:19:23.383Z,82.74
2023-01-30T09:20:23.412Z,82.74
2023-01-30T09:21:23.422Z,82.64
2023-01-30T09:22:23.438Z,82.91
2023-01-30T09:23:23.483Z,83.01
2023-01-30T09:24:23.473Z,82.91
2023-01-30T09:25:23.531Z,83.01
2023-01-30T09:26:23.559Z,83.01
2023-01-30T09:27:23.546Z,83.16
2023-01-30T09:28:23.570Z,83.68
2023-01-30T09:29:23.573Z,83.16
2023-01-30T09:30:23.608Z,83.16
2023-01-30T09:31:23.740Z,83.23
2023-01-30T09:32:23.627Z,83.12
2023-01-30T09:33:23.669Z,83.12
2023-01-30T09:34:23.651Z,83.64
2023-01-30T09:35:23.675Z,84.00
2023-01-30T09:36:23.691Z,83.78
2023-01-30T09:37:23.713Z,83.68
2023-01-30T09:38:23.752Z,83.89
2023-01-30T09:39:23.758Z,83.37
2023-01-30T09:40:23.768Z,83.78
2023-01-30T09:41:23.791Z,83.58
2023-01-30T09:42:23.808Z,84.41
2023-01-30T09:43:23.842Z,83.68
2023-01-30T09:44:23.835Z,83.54
2023-01-30T09:45:23.861Z,83.85
2023-01-30T09:46:23.895Z,83.23
2023-01-30T09:47:23.891Z,82.60
2023-01-30T09:48:23.911Z,83.01
2023-01-30T09:49:23.929Z,82.81
2023-01-30T09:50:24.053Z,82.39
2023-01-30T09:51:23.969Z,82.81
2023-01-30T09:52:23.998Z,82.39
2023-01-30T09:53:24.020Z,82.91
2023-01-30T09:54:24.008Z,83.08
2023-01-30T09:55:24.028Z,82.25
2023-01-30T09:56:24.033Z,82.46
2023-01-30T09:57:24.058Z,82.35
2023-01-30T09:58:24.095Z,82.98
2023-01-30T09:59:24.096Z,82.35
2023-01-30T10:00:24.115Z,82.46
2023-01-30T10:01:24.132Z,82.35
2023-01-30T10:02:24.148Z,82.67
2023-01-30T10:03:24.295Z,83.08
2023-01-30T10:04:24.195Z,83.29
2023-01-30T10:05:24.227Z,83.18
2023-01-30T10:06:24.212Z,83.81
2023-01-30T10:07:24.265Z,83.71
2023-01-30T10:08:24.276Z,84.12
2023-01-30T10:09:25.421Z,84.02
2023-01-30T10:10:24.278Z,84.75
2023-01-30T10:11:24.300Z,84.96
2023-01-30T10:12:24.321Z,84.23
2023-01-30T10:13:24.354Z,84.34
2023-01-30T10:14:24.338Z,84.34
2023-01-30T10:15:24.362Z,84.12
2023-01-30T10:16:24.438Z,84.65
2023-01-30T10:17:24.418Z,84.65
2023-01-30T10:18:24.433Z,85.03
2023-01-30T10:19:35.213Z,84.30
2023-01-30T10:20:24.934Z,84.61
2023-01-30T10:21:24.456Z,84.19
2023-01-30T10:22:24.474Z,84.09
2023-01-30T10:23:24.518Z,84.09
2023-01-30T10:24:24.505Z,83.98
2023-01-30T10:25:24.533Z,83.57
2023-01-30T10:26:24.651Z,83.53
2023-01-30T10:27:24.561Z,83.63
2023-01-30T10:28:24.598Z,83.49
2023-01-30T10:29:24.601Z,82.97
2023-01-30T10:30:24.716Z,82.55
2023-01-30T10:31:24.697Z,82.20
2023-01-30T10:32:24.652Z,82.10
2023-01-30T10:33:24.803Z,81.33
2023-01-30T10:34:24.692Z,81.50
2023-01-30T10:35:26.226Z,80.88
2023-01-30T10:36:24.726Z,80.84
2023-01-30T10:37:24.737Z,80.11
2023-01-30T10:38:24.851Z,79.59
2023-01-30T10:39:24.786Z,79.97
2023-01-30T10:40:24.789Z,79.03
2023-01-30T10:41:24.806Z,80.08
2023-01-30T10:42:24.826Z,79.14
2023-01-30T10:43:24.837Z,79.24
2023-01-30T10:44:24.840Z,78.41
2023-01-30T10:45:24.869Z,79.97
2023-01-30T10:46:24.940Z,79.45
2023-01-30T10:47:26.460Z,79.76
2023-01-30T10:48:37.839Z,79.24
2023-01-30T10:49:24.942Z,78.93
2023-01-30T10:50:24.945Z,79.55
2023-01-30T10:51:24.974Z,79.87
2023-01-30T10:52:24.989Z,79.76
2023-01-30T10:53:25.058Z,79.35
2023-01-30T10:54:25.022Z,79.24
2023-01-30T10:55:36.366Z,79.03
2023-01-30T10:56:25.068Z,79.03
2023-01-30T10:57:25.083Z,78.93
2023-01-30T10:58:25.116Z,79.55
2023-01-30T10:59:25.113Z,78.93
2023-01-30T11:00:25.116Z,78.62
2023-01-30T11:01:25.187Z,79.66
2023-01-30T11:02:25.262Z,79.59
2023-01-30T11:03:25.201Z,80.01
2023-01-30T11:04:25.178Z,80.22
2023-01-30T11:05:25.202Z,80.32
2023-01-30T11:06:25.219Z,80.94
2023-01-30T11:07:25.241Z,81.09
2023-01-30T11:08:25.269Z,80.98
2023-01-30T11:09:25.271Z,80.88
2023-01-30T11:10:25.289Z,81.40
2023-01-30T11:11:25.318Z,81.81
2023-01-30T11:12:25.319Z,81.60
2023-01-30T11:13:25.355Z,81.60
2023-01-30T11:14:25.346Z,81.60
2023-01-30T11:15:25.377Z,81.40
2023-01-30T11:16:25.429Z,81.40
2023-01-30T11:17:25.403Z,81.40
2023-01-30T11:19:25.445Z,81.92
2023-01-30T11:20:25.427Z,81.81
2023-01-30T11:21:32.062Z,81.50
2023-01-30T11:22:25.475Z,81.40
2023-01-30T11:23:25.523Z,81.60
2023-01-30T11:24:25.516Z,81.71
2023-01-30T11:25:25.536Z,81.60
2023-01-30T11:26:32.026Z,81.19
2023-01-30T11:27:25.581Z,81.92
2023-01-30T11:28:25.615Z,81.40
2023-01-30T11:29:25.626Z,81.40
2023-01-30T11:30:25.613Z,81.29
2023-01-30T11:31:40.303Z,81.71
2023-01-30T11:32:25.784Z,80.88
2023-01-30T11:33:25.693Z,81.50
2023-01-30T11:34:25.688Z,81.40
2023-01-30T11:35:25.732Z,80.57
2023-01-30T11:36:25.727Z,80.88
2023-01-30T11:37:25.774Z,81.50
2023-01-30T11:38:25.792Z,81.29
2023-01-30T11:39:25.792Z,81.50
2023-01-30T11:40:25.799Z,81.71
2023-01-30T11:41:25.815Z,81.40
2023-01-30T11:42:25.839Z,80.98
2023-01-30T11:43:25.888Z,80.77
2023-01-30T11:44:25.874Z,81.75
2023-01-30T11:45:25.900Z,81.75
2023-01-30T11:46:25.912Z,82.27
2023-01-30T11:47:25.935Z,81.75
2023-01-30T11:48:33.014Z,82.27
2023-01-30T11:49:40.416Z,82.37
2023-01-30T11:50:28.763Z,82.06
2023-01-30T11:51:26.024Z,81.85
2023-01-30T11:52:26.014Z,81.65
2023-01-30T11:53:26.068Z,82.27
2023-01-30T11:54:26.053Z,82.37
2023-01-30T11:55:26.084Z,82.17
2023-01-30T11:56:26.092Z,82.79
2023-01-30T11:57:26.115Z,82.17
2023-01-30T11:58:26.147Z,82.79
2023-01-30T11:59:26.153Z,82.06
2023-01-30T12:00:26.169Z,82.68
2023-01-30T12:01:26.188Z,82.79
2023-01-30T12:02:26.316Z,82.17
2023-01-30T12:03:26.278Z,82.48
2023-01-30T12:04:26.246Z,82.41
2023-01-30T12:05:26.281Z,82.62
2023-01-30T12:06:26.279Z,83.35
2023-01-30T12:07:26.299Z,82.58
2023-01-30T12:08:40.694Z,82.68
2023-01-30T12:09:26.334Z,82.89
2023-01-30T12:10:26.344Z,82.68
2023-01-30T12:11:26.375Z,83.20
2023-01-30T12:12:26.380Z,83.31
2023-01-30T12:13:26.428Z,83.52
2023-01-30T12:14:26.425Z,83.76
2023-01-30T12:15:26.458Z,83.73
2023-01-30T12:16:26.507Z,83.62
2023-01-30T12:17:26.495Z,84.04
2023-01-30T12:18:26.508Z,84.25
2023-01-30T12:19:26.513Z,84.77
2023-01-30T12:20:26.516Z,84.56
2023-01-30T12:21:26.541Z,85.12
2023-01-30T12:22:26.568Z,84.91
2023-01-30T12:23:26.635Z,85.43
2023-01-30T12:24:26.600Z,85.64
2023-01-30T12:25:26.628Z,85.96
2023-01-30T12:26:26.688Z,86.06
2023-01-30T12:27:26.653Z,85.74
2023-01-30T12:28:26.776Z,85.85
2023-01-30T12:29:26.690Z,86.12
2023-01-30T12:30:26.724Z,85.96
2023-01-30T12:31:26.728Z,86.12
2023-01-30T12:32:26.751Z,85.91
2023-01-30T12:33:26.791Z,86.43
2023-01-30T12:34:27.675Z,85.91
2023-01-30T12:35:26.812Z,86.33
2023-01-30T12:36:26.831Z,86.33
2023-01-30T12:37:26.846Z,86.54
2023-01-30T12:38:26.880Z,86.85
2023-01-30T12:39:26.865Z,86.54
2023-01-30T12:40:26.895Z,86.33
2023-01-30T12:41:26.904Z,86.33
2023-01-30T12:42:26.933Z,86.12
2023-01-30T12:43:26.997Z,86.65
2023-01-30T12:44:26.962Z,86.54
2023-01-30T12:45:26.976Z,86.19
2023-01-30T12:46:27.045Z,85.88
2023-01-30T12:47:27.011Z,86.19
2023-01-30T12:48:27.053Z,86.29
2023-01-30T12:49:27.056Z,85.56
2023-01-30T12:50:27.068Z,85.77
2023-01-30T12:51:27.083Z,85.98
2023-01-30T12:52:27.100Z,85.67
2023-01-30T12:53:27.139Z,85.77